Airfield :
LOGIN :

Register | Disclaimer

   EN    FR    IT 

 










Legend :    VFR   Marginal VFR   IFR   Intensive IFR   Very Intensive IFR
Visi :
Ceiling :
>= 8 km
>= 3000ft
5 to 8 km
1000 to 3000 ft
1500m to 5 km
500 to 1000 ft
800 to 1500m
200 to 500 ft
< 800m
< 200 ft
Symbols :   Thunderstorms  Fog  Heavy snow  Heavy precipitations  Wind > 20 kt
SIGMETs :     Misc.  Thunderstorms  Icing  Turbulence  Mountain Waves  Volcanic Ashes






- Airport Elevation : 1017 ft


LFSL - Brive Souillac

CURRENT METAR :
  • 110400Z AUTO 15004KT 9999 -DZ OVC017/// ///TCU 09/08 Q1010 BECMG RA BKN014 BKN035

EXPIRED METARs :
  • 110330Z AUTO 14003KT 110V190 9999 -RADZ OVC019/// ///TCU 09/08 Q1010 BECMG RA BKN014 BKN035
  • 110300Z AUTO 16005KT 9999 RA BKN019/// BKN058/// OVC068/// ///TCU 09/08 Q1010 BECMG BKN014 BKN035
  • 110230Z AUTO 16006KT 120V190 9999 -RADZ SCT021/// BKN037/// BKN044/// ///TCU 09/07 Q1010 BECMG RA BKN014 BKN035
  • 110200Z AUTO 21007KT 150V240 9999 BKN023/// BKN062/// BKN086/// ///CB 09/07 Q1011
  • 110130Z AUTO 15007KT 120V180 CAVOK 09/07 Q1010

TAF TAF LFSL
Valid from the 11 at 03:00 until the 11 at 12:00 UTC


110200Z 1103/1112 15008KT CAVOK
BECMG 1103/1104 RA BKN014 BKN035
BECMG 1107/1109 OVC005
BECMG 1111/1112 30010KT



MET'MAP, your aeronautical weather chart ! - Copyright ORBIFLY December 2007 - Disclaimer

ORBIFLY MET'MAP TEAM :

Programming & Development : Alexandra Zaïnal
Concept & original design : Baudouin d'Aumeries
Assistance for programming : Marc-Olivier Méhu
Technical & hardware support : Manuel Goepfert

Contact : metmap@orbifly.com




SOURCES & CREDITS :

   NOAA